Lubbock Preston Smith International Airport
KLBB : rendu visible

Aérodrome :











RETROUVEZ-NOUS SUR...

 
LOGIN :

S'inscrire | Disclaimer

   EN    FR    IT 

 









Légende :    VFR   VFR Marginal   IFR   IFR Intensif   IFR Très Intensif
Visi : 
Plafond : 
>= 8 km
>= 3000ft
5 à 8 km
1000 à 3000 ft
1500m à 5 km
500 à 1000 ft
800 à 1500m
200 à 500 ft
< 800m
< 200 ft
Symboles :   Orages  Brouillard  Fortes neiges  Fortes précipitations  Vent > 20 kt






- Altitude de l'aérodrome : 3282 ft
- Code IATA : LBB


KLBB - Lubbock Preston Smith International

DERNIER METAR :
  • 261353Z 29006KT 10SM FEW250 M02/M04 A3005 RMK AO2 SLP177 T10171044

METARs EXPIRÉS :
  • 261253Z 30007KT 10SM CLR M01/M04 A3006 RMK AO2 SLP174 T10111039
  • 261153Z 32007KT 10SM CLR 00/M03 A3004 RMK AO2 SLP161 T00001033 10050 21011 53003

TAF KLBB
Valide du 26 à 12h jusqu'au 27 à 12h UTC


261136Z 2612/2712 VRB06KT P6SM FEW250



MET'MAP, la Météo Aéronautique d'un coup d'oeil ! - Copyright ORBIFLY Décembre 2007 - Disclaimer

ORBIFLY MET'MAP TEAM :

Programmation & Développement : Alexandra Zaïnal
Sur une idée originale de : Baudouin d'Aumeries
Assistance à la programmation : Marc-Olivier Méhu
Soutien technique & logistique : Manuel Goepfert

Contact : metmap@orbifly.com




SOURCES & CREDITS :

   NOAA       Earth
Advisory